Time;durP1;ratioP1;P1;durP2;ratioP2;P2;SDS_P1;SDS_P2;PMS_P1;PMS_P2;Temp;Humidity;BMP_temperature;BMP_pressure;BME280_temperature;BME280_humidity;BME280_pressure;Samples;Min_cycle;Max_cycle;Signal;HPM_P1;HPM_P2
2021/06/05 00:02:07;;;;;;;5.05;4.75;;;;;;;17.09;90.77;101516.91;5337157;26;20358;-69
2021/06/05 00:04:33;;;;;;;4.97;4.68;;;;;;;17.09;90.32;101519.56;5339301;26;20417;-69
2021/06/05 00:06:58;;;;;;;5.57;5.28;;;;;;;17.11;89.85;101522.97;5339555;26;20377;-68
2021/06/05 00:09:24;;;;;;;4.93;4.72;;;;;;;17.11;90.76;101525.63;5339549;26;20073;-69
2021/06/05 00:11:49;;;;;;;4.90;4.70;;;;;;;17.12;90.13;101521.19;5338901;26;20051;-70
2021/06/05 00:14:14;;;;;;;4.70;4.50;;;;;;;17.10;90.51;101517.78;5339368;26;20793;-69
2021/06/05 00:16:42;;;;;;;4.95;4.75;;;;;;;17.07;89.93;101520.63;5338968;26;20107;-69
2021/06/05 00:19:09;;;;;;;4.60;4.40;;;;;;;17.02;90.25;101517.41;5337929;26;20366;-68
2021/06/05 00:21:34;;;;;;;5.57;5.20;;;;;;;17.00;90.17;101517.53;5339679;26;20049;-68
2021/06/05 00:24:00;;;;;;;4.80;4.60;;;;;;;16.95;90.24;101511.69;5337861;26;20039;-69
2021/06/05 00:26:25;;;;;;;5.40;5.10;;;;;;;16.97;90.39;101516.91;5338192;26;20034;-69
2021/06/05 00:28:51;;;;;;;4.80;4.60;;;;;;;17.02;90.11;101533.34;5339377;26;20041;-68
2021/06/05 00:31:16;;;;;;;5.35;5.03;;;;;;;16.90;90.50;101516.47;5339489;26;20043;-69
2021/06/05 00:33:41;;;;;;;5.28;4.97;;;;;;;17.02;89.85;101534.22;5337509;26;20556;-68
2021/06/05 00:36:08;;;;;;;4.87;4.68;;;;;;;17.01;89.83;101534.31;5339604;26;20111;-68
2021/06/05 00:38:34;;;;;;;5.50;5.12;;;;;;;17.01;90.33;101540.44;5338903;26;20108;-70
2021/06/05 00:41:00;;;;;;;5.00;4.80;;;;;;;17.06;89.74;101542.78;5339578;26;20818;-69
2021/06/05 00:43:30;;;;;;;5.70;5.40;;;;;;;17.07;90.34;101533.91;5338461;26;20057;-69
2021/06/05 00:45:55;;;;;;;4.95;4.75;;;;;;;17.10;90.07;101531.91;5339384;26;20117;-69
2021/06/05 00:48:21;;;;;;;6.03;5.72;;;;;;;17.11;90.52;101530.94;5338016;26;20047;-69
2021/06/05 00:50:47;;;;;;;5.05;4.75;;;;;;;17.08;90.18;101536.44;5339730;26;20636;-69
2021/06/05 00:53:12;;;;;;;5.53;5.22;;;;;;;16.94;90.33;101518.78;5338737;26;20045;-69
2021/06/05 00:55:40;;;;;;;5.20;4.90;;;;;;;17.04;89.46;101537.59;5337543;26;20452;-69
2021/06/05 00:58:06;;;;;;;5.00;4.80;;;;;;;17.06;90.29;101541.00;5340362;26;20066;-69
2021/06/05 01:00:45;;;;;;;5.70;5.40;;;;;;;17.13;90.18;101552.06;5336172;26;20066;-68
2021/06/05 01:03:11;;;;;;;4.82;4.62;;;;;;;17.18;90.06;101547.31;5339713;26;20115;-68
2021/06/05 01:05:37;;;;;;;4.75;4.53;;;;;;;17.04;89.80;101520.81;5357929;26;20224;-70
2021/06/05 01:08:28;;;;;;;5.87;5.53;;;;;;;17.17;89.59;101534.97;5340157;26;20034;-68
2021/06/05 01:10:56;;;;;;;5.50;5.20;;;;;;;17.14;89.59;101537.84;5359016;26;20057;-69
2021/06/05 01:13:31;;;;;;;5.35;5.07;;;;;;;16.79;89.22;101469.41;5340370;26;20030;-68
2021/06/05 01:16:01;;;;;;;5.62;5.32;;;;;;;17.19;89.54;101529.56;5337404;26;20723;-69
2021/06/05 01:18:26;;;;;;;5.65;5.35;;;;;;;17.21;90.02;101531.16;5340600;26;20038;-68
2021/06/05 01:21:08;;;;;;;4.70;4.50;;;;;;;16.05;89.36;101335.63;5357573;26;20039;-69
2021/06/05 01:23:46;;;;;;;6.15;5.85;;;;;;;17.02;89.95;101520.94;5338206;26;20135;-69
2021/06/05 01:26:25;;;;;;;5.20;4.90;;;;;;;17.02;89.22;101528.03;5338978;26;20456;-69
2021/06/05 01:29:32;;;;;;;5.00;4.80;;;;;;;17.02;90.31;101522.72;5340765;26;20065;-69
2021/06/05 01:31:59;;;;;;;5.28;5.00;;;;;;;16.99;89.62;101526.44;5306882;26;20042;-68
2021/06/05 01:34:28;;;;;;;4.95;4.75;;;;;;;16.98;90.20;101540.66;5339989;26;20120;-69
2021/06/05 01:36:54;;;;;;;5.30;4.90;;;;;;;16.95;89.94;101538.19;5338597;26;20027;-69
2021/06/05 01:39:23;;;;;;;5.07;4.80;;;;;;;16.85;90.44;101521.19;5339415;26;20065;-69
2021/06/05 01:41:48;;;;;;;5.50;5.20;;;;;;;16.83;89.91;101539.00;5337989;26;20590;-70
2021/06/05 01:44:13;;;;;;;5.07;4.85;;;;;;;16.79;90.33;101530.38;5336503;26;20057;-69
2021/06/05 01:46:41;;;;;;;5.20;4.90;;;;;;;16.74;90.00;101535.97;5338369;26;20039;-68
2021/06/05 01:49:06;;;;;;;4.80;4.60;;;;;;;16.72;90.68;101534.38;5339800;26;20050;-69
2021/06/05 01:51:31;;;;;;;5.15;4.95;;;;;;;16.69;90.81;101542.53;5336788;26;20923;-69
2021/06/05 01:53:59;;;;;;;5.25;4.95;;;;;;;16.65;90.33;101536.56;5338895;26;20043;-69
2021/06/05 01:56:26;;;;;;;4.97;4.78;;;;;;;16.35;90.03;101497.81;5339168;26;20057;-69
2021/06/05 01:58:52;;;;;;;6.87;5.10;;;;;;;16.63;90.50;101537.63;5357214;26;20042;-70
2021/06/05 02:01:17;;;;;;;5.60;5.30;;;;;;;16.63;90.25;101534.97;5336670;26;20419;-70
2021/06/05 02:03:42;;;;;;;5.15;4.95;;;;;;;16.52;90.93;101523.25;5339375;26;20476;-67
2021/06/05 02:06:08;;;;;;;4.87;4.68;;;;;;;16.59;90.21;101529.00;5339079;26;20052;-68
2021/06/05 02:08:33;;;;;;;5.20;4.90;;;;;;;16.52;90.74;101538.31;5337958;26;20055;-68
2021/06/05 02:11:04;;;;;;;5.53;5.25;;;;;;;16.43;90.60;101530.94;5339651;26;20100;-68
2021/06/05 02:13:33;;;;;;;5.60;5.30;;;;;;;16.43;90.98;101538.87;5337187;26;20059;-70
2021/06/05 02:16:00;;;;;;;5.68;5.37;;;;;;;16.02;91.28;101476.16;5357390;26;20057;-69
2021/06/05 02:18:28;;;;;;;5.22;4.95;;;;;;;16.31;90.47;101528.09;5338263;26;20808;-68
2021/06/05 02:21:04;;;;;;;5.15;4.95;;;;;;;16.23;91.44;101530.38;5337534;26;20034;-69
2021/06/05 02:23:53;;;;;;;4.90;4.70;;;;;;;16.21;91.21;101534.09;5338106;26;20533;-68
2021/06/05 02:26:20;;;;;;;4.85;4.65;;;;;;;16.15;91.10;101530.03;5339329;26;20123;-70
2021/06/05 02:28:45;;;;;;;4.93;4.72;;;;;;;16.12;90.90;101527.59;5337642;26;20054;-70
2021/06/05 02:31:11;;;;;;;5.10;4.90;;;;;;;16.09;91.79;101530.41;5338349;26;20359;-71
2021/06/05 02:33:37;;;;;;;5.03;4.82;;;;;;;16.09;91.66;101527.75;5338064;26;20043;-68
2021/06/05 02:36:03;;;;;;;4.82;4.62;;;;;;;16.12;91.66;101525.78;5338211;26;20133;-70
2021/06/05 02:38:28;;;;;;;6.12;5.72;;;;;;;16.16;92.28;101529.09;5339951;26;20061;-69
2021/06/05 02:40:53;;;;;;;5.43;5.03;;;;;;;15.79;91.22;101456.38;5338290;26;20039;-68
2021/06/05 02:43:22;;;;;;;4.93;4.62;;;;;;;16.26;92.23;101532.84;5336604;26;20402;-69
2021/06/05 02:45:49;;;;;;;5.10;4.90;;;;;;;16.31;91.98;101530.75;5338435;26;20149;-68
2021/06/05 02:48:14;;;;;;;4.90;4.70;;;;;;;15.48;91.13;101381.53;5355885;26;20482;-69
2021/06/05 02:50:45;;;;;;;4.62;4.43;;;;;;;16.42;91.37;101535.41;5337161;26;20038;-69
2021/06/05 02:53:11;;;;;;;6.12;5.72;;;;;;;16.48;90.95;101540.31;5337388;26;20043;-70
2021/06/05 02:55:36;;;;;;;4.80;4.60;;;;;;;16.53;91.85;101540.84;5355807;26;20057;-70
2021/06/05 02:58:03;;;;;;;4.80;4.60;;;;;;;16.57;91.68;101536.19;5338323;26;20060;-69
2021/06/05 03:00:45;;;;;;;5.60;5.30;;;;;;;16.65;90.94;101538.37;5337840;26;20143;-69
2021/06/05 03:03:11;;;;;;;5.00;4.80;;;;;;;16.68;91.70;101541.69;5337718;26;20815;-71
2021/06/05 03:05:37;;;;;;;5.22;4.93;;;;;;;16.70;91.07;101526.53;5337139;26;20116;-69
2021/06/05 03:08:03;;;;;;;5.07;4.78;;;;;;;16.67;90.65;101524.06;5341129;26;20694;-69
2021/06/05 03:10:31;;;;;;;5.20;4.90;;;;;;;16.70;90.93;101530.97;5339156;26;20043;-70
2021/06/05 03:12:57;;;;;;;5.20;4.95;;;;;;;16.76;90.55;101530.59;5357227;26;20564;-69
2021/06/05 03:15:23;;;;;;;4.87;4.68;;;;;;;16.83;90.53;101534.53;5337797;26;20141;-70
2021/06/05 03:17:48;;;;;;;5.15;4.90;;;;;;;16.88;91.27;101532.47;5340283;26;20051;-73
2021/06/05 03:20:16;;;;;;;5.70;5.35;;;;;;;16.94;90.39;101536.50;5337432;26;20038;-72
2021/06/05 03:22:41;;;;;;;5.00;4.80;;;;;;;16.98;89.85;101538.00;5339449;26;20042;-72
2021/06/05 03:25:07;;;;;;;5.10;4.80;;;;;;;16.98;90.77;101532.72;5338440;26;20315;-71
2021/06/05 03:27:33;;;;;;;5.57;5.28;;;;;;;16.97;90.45;101538.94;5338531;26;20858;-70
2021/06/05 03:29:58;;;;;;;4.82;4.62;;;;;;;17.00;90.69;101528.16;5339273;26;20453;-69
2021/06/05 03:32:23;;;;;;;6.00;5.68;;;;;;;17.06;90.54;101532.19;5339476;26;20053;-70
2021/06/05 03:34:49;;;;;;;5.80;5.50;;;;;;;17.08;89.85;101533.78;5338150;26;20047;-68
2021/06/05 03:37:14;;;;;;;6.37;6.00;;;;;;;17.12;89.62;101534.44;5338945;26;20761;-70
2021/06/05 03:39:40;;;;;;;6.05;5.75;;;;;;;16.64;89.92;101457.16;5338316;26;20504;-69
2021/06/05 03:42:05;;;;;;;5.20;5.00;;;;;;;17.15;89.48;101534.22;5336198;26;20035;-69
2021/06/05 03:44:31;;;;;;;5.12;4.82;;;;;;;17.18;89.38;101538.47;5320477;26;20038;-70
2021/06/05 03:46:56;;;;;;;5.43;5.15;;;;;;;17.20;89.59;101528.59;5337487;26;20034;-69
2021/06/05 03:49:22;;;;;;;5.18;4.87;;;;;;;17.25;89.24;101526.50;5338307;26;20039;-70
2021/06/05 03:51:47;;;;;;;5.37;5.07;;;;;;;17.27;89.13;101528.09;5336399;26;20481;-70
2021/06/05 03:54:12;;;;;;;5.45;5.05;;;;;;;17.30;90.18;101533.22;5338747;26;20096;-70
2021/06/05 03:56:38;;;;;;;5.80;5.25;;;;;;;17.31;89.02;101524.28;5337759;26;20049;-69
2021/06/05 03:59:03;;;;;;;5.22;4.93;;;;;;;17.33;88.91;101527.69;5339165;26;20365;-70
2021/06/05 04:01:29;;;;;;;6.53;6.07;;;;;;;17.33;89.62;101530.34;5336845;26;20053;-70
2021/06/05 04:03:55;;;;;;;4.72;4.53;;;;;;;17.32;89.17;101530.47;5336926;26;20770;-69
2021/06/05 04:06:20;;;;;;;5.68;5.37;;;;;;;17.32;88.70;101531.31;5338630;26;20062;-70
2021/06/05 04:08:46;;;;;;;5.97;5.53;;;;;;;17.32;89.62;101525.16;5339270;26;20043;-70
2021/06/05 04:11:11;;;;;;;5.68;5.37;;;;;;;17.26;88.99;101530.84;5338390;26;20054;-70
2021/06/05 04:13:36;;;;;;;5.03;4.82;;;;;;;17.28;89.64;101526.28;5338532;26;20807;-69
2021/06/05 04:16:02;;;;;;;5.43;5.12;;;;;;;17.27;89.57;101524.59;5338510;26;20041;-69
2021/06/05 04:18:30;;;;;;;5.45;5.15;;;;;;;17.28;89.91;101523.62;5337177;26;20083;-70
2021/06/05 04:20:56;;;;;;;5.10;4.82;;;;;;;17.30;88.84;101521.75;5338792;26;20042;-70
2021/06/05 04:23:21;;;;;;;5.18;4.97;;;;;;;17.32;88.90;101515.37;5338245;26;20126;-70
2021/06/05 04:25:46;;;;;;;5.70;5.40;;;;;;;17.30;89.55;101512.00;5338095;26;20386;-69
2021/06/05 04:28:13;;;;;;;5.35;5.05;;;;;;;17.40;88.90;101519.31;5338536;26;20038;-71
2021/06/05 04:30:39;;;;;;;5.95;5.55;;;;;;;17.45;88.62;101519.88;5338956;26;20108;-71
2021/06/05 04:33:05;;;;;;;5.68;5.30;;;;;;;17.43;89.29;101503.19;5337779;26;20146;-70
2021/06/05 04:35:30;;;;;;;5.20;5.00;;;;;;;17.45;88.99;101515.41;5339248;26;20072;-69
2021/06/05 04:37:56;;;;;;;6.03;5.72;;;;;;;17.45;88.40;101512.75;5338212;26;20983;-69
2021/06/05 04:40:23;;;;;;;5.15;4.95;;;;;;;16.47;88.35;101362.87;5338021;26;20039;-70
2021/06/05 04:42:49;;;;;;;5.15;4.95;;;;;;;17.41;89.41;101510.41;5336744;26;20562;-70
2021/06/05 04:45:14;;;;;;;5.65;5.35;;;;;;;17.48;89.59;101511.66;5337271;26;20032;-69
2021/06/05 04:47:40;;;;;;;5.80;5.50;;;;;;;17.48;88.42;101509.88;5337659;26;20147;-70
2021/06/05 04:50:07;;;;;;;5.68;5.35;;;;;;;17.61;88.72;101517.84;5337879;26;20508;-70
2021/06/05 04:52:32;;;;;;;5.47;5.18;;;;;;;17.63;88.41;101513.28;5336971;26;20059;-70
2021/06/05 04:54:58;;;;;;;5.40;5.20;;;;;;;17.79;88.76;101514.87;5336685;26;20050;-70
2021/06/05 04:57:23;;;;;;;5.25;5.03;;;;;;;17.84;88.43;101510.12;5338630;26;20042;-70
2021/06/05 04:59:48;;;;;;;5.93;5.62;;;;;;;17.96;87.45;101509.28;5338099;26;20050;-69
2021/06/05 05:02:14;;;;;;;5.00;4.80;;;;;;;18.03;87.06;101507.03;5338187;26;20520;-71
2021/06/05 05:04:43;;;;;;;6.28;5.90;;;;;;;17.97;87.13;101500.34;5336815;26;20035;-69
2021/06/05 05:07:09;;;;;;;5.60;5.28;;;;;;;18.13;87.31;101508.06;5338702;26;20038;-70
2021/06/05 05:09:34;;;;;;;5.65;5.35;;;;;;;18.33;86.93;101515.47;5339561;26;20039;-72
2021/06/05 05:11:59;;;;;;;5.57;5.18;;;;;;;18.63;86.86;101516.84;5341731;26;20038;-70
2021/06/05 05:14:25;;;;;;;6.10;5.62;;;;;;;18.77;85.82;101522.97;5339643;26;20049;-69
2021/06/05 05:16:50;;;;;;;5.95;5.55;;;;;;;18.66;84.92;101516.66;5337439;26;20026;-69
2021/06/05 05:19:15;;;;;;;6.00;5.70;;;;;;;18.54;83.96;101530.81;5338370;26;20591;-71
2021/06/05 05:21:42;;;;;;;5.95;5.62;;;;;;;18.47;84.47;101524.25;5337299;26;20087;-71
2021/06/05 05:24:07;;;;;;;6.75;6.32;;;;;;;18.48;84.56;101524.16;5336404;26;20051;-69
2021/06/05 05:26:33;;;;;;;5.55;5.25;;;;;;;18.61;84.61;101516.13;5337993;26;20065;-70
2021/06/05 05:28:58;;;;;;;5.68;5.35;;;;;;;18.81;84.43;101529.81;5337867;26;20042;-70
2021/06/05 05:31:26;;;;;;;6.00;5.65;;;;;;;18.99;82.77;101524.94;5336854;26;20039;-69
2021/06/05 05:33:51;;;;;;;5.30;5.00;;;;;;;19.37;82.28;101514.06;5339102;26;20527;-71
2021/06/05 05:36:22;;;;;;;5.87;5.47;;;;;;;19.55;80.94;101514.44;5336978;26;20050;-72
2021/06/05 05:38:48;;;;;;;5.40;5.10;;;;;;;19.87;81.27;101514.63;5356943;26;20403;-71
2021/06/05 05:41:14;;;;;;;6.53;6.05;;;;;;;20.01;80.20;101488.72;5337039;26;20039;-69
2021/06/05 05:43:39;;;;;;;5.68;5.37;;;;;;;20.65;78.24;101517.38;5337563;26;20072;-70
2021/06/05 05:46:04;;;;;;;5.97;5.68;;;;;;;21.39;76.39;101520.06;5336126;26;20465;-69
2021/06/05 05:48:34;;;;;;;6.07;5.75;;;;;;;21.81;72.40;101524.53;5338183;26;20044;-70
2021/06/05 05:50:59;;;;;;;5.70;5.40;;;;;;;21.67;71.81;101467.00;5335928;26;20096;-70
2021/06/05 05:53:25;;;;;;;5.95;5.57;;;;;;;22.16;71.14;101529.47;5337538;26;20157;-70
2021/06/05 05:55:50;;;;;;;6.55;6.10;;;;;;;22.41;70.30;101535.34;5337127;26;20043;-70
2021/06/05 05:58:17;;;;;;;6.30;5.90;;;;;;;22.73;69.17;101536.97;5338860;26;20929;-70
2021/06/05 06:00:43;;;;;;;6.35;5.97;;;;;;;22.89;68.03;101539.94;5336232;26;20054;-69
2021/06/05 06:03:09;;;;;;;6.00;5.70;;;;;;;22.73;67.14;101539.66;5338530;26;20104;-71
2021/06/05 06:05:34;;;;;;;7.18;6.45;;;;;;;22.49;67.40;101543.53;5336853;26;20165;-69
2021/06/05 06:08:00;;;;;;;6.43;6.03;;;;;;;21.92;68.77;101544.00;5337752;26;20058;-71
2021/06/05 06:10:25;;;;;;;5.45;5.18;;;;;;;21.77;69.98;101540.03;5338531;26;20750;-70
2021/06/05 06:12:50;;;;;;;6.22;5.82;;;;;;;21.68;70.23;101543.47;5337144;26;20039;-70
2021/06/05 06:15:19;;;;;;;5.97;5.68;;;;;;;21.21;71.45;101519.81;5337402;26;20111;-71
2021/06/05 06:17:45;;;;;;;5.93;5.62;;;;;;;21.05;71.03;101552.28;5338595;26;20035;-69
2021/06/05 06:20:15;;;;;;;6.50;6.10;;;;;;;21.08;72.47;101556.50;5339297;26;20525;-70
2021/06/05 06:22:41;;;;;;;6.20;5.80;;;;;;;21.01;72.65;101555.34;5336558;26;20046;-71
2021/06/05 06:25:07;;;;;;;6.53;6.12;;;;;;;20.89;73.32;101541.19;5338266;26;20538;-70
2021/06/05 06:27:32;;;;;;;6.60;6.20;;;;;;;20.82;73.03;101554.16;5338030;26;20053;-70
2021/06/05 06:29:58;;;;;;;6.62;6.12;;;;;;;20.69;73.35;101558.81;5337908;26;20034;-70
2021/06/05 06:32:23;;;;;;;6.18;5.68;;;;;;;20.76;73.22;101565.34;5338741;26;20042;-70
2021/06/05 06:34:48;;;;;;;6.70;6.15;;;;;;;20.82;72.70;101570.16;5339209;26;20042;-70
2021/06/05 06:37:14;;;;;;;6.57;6.18;;;;;;;20.57;73.85;101562.44;5337242;26;20061;-69
2021/06/05 06:39:39;;;;;;;6.28;5.87;;;;;;;20.50;74.56;101568.25;5339471;26;20039;-69
2021/06/05 06:42:04;;;;;;;6.22;5.82;;;;;;;20.50;73.58;101565.59;5337313;26;20500;-70
2021/06/05 06:44:30;;;;;;;5.95;5.65;;;;;;;20.37;74.08;101577.38;5337734;26;20143;-69
2021/06/05 06:46:55;;;;;;;6.32;5.78;;;;;;;19.59;76.39;101577.16;5339108;26;20034;-70
2021/06/05 06:49:21;;;;;;;6.40;5.93;;;;;;;19.81;77.44;101571.06;5337007;26;20043;-71
2021/06/05 06:51:47;;;;;;;5.90;5.60;;;;;;;19.91;76.51;101577.38;5337758;26;20486;-69
2021/06/05 06:54:13;;;;;;;5.85;5.55;;;;;;;19.97;75.95;101576.03;5337574;26;20088;-70
2021/06/05 06:56:38;;;;;;;6.25;5.85;;;;;;;20.00;75.98;101577.59;5338374;26;20039;-69
2021/06/05 06:59:04;;;;;;;7.03;6.50;;;;;;;19.86;76.45;101578.69;5337489;26;20058;-70
2021/06/05 07:01:30;;;;;;;6.05;5.65;;;;;;;19.88;76.21;101584.75;5338493;26;20107;-71
2021/06/05 07:03:55;;;;;;;6.68;6.28;;;;;;;19.88;76.78;101590.06;5338069;26;20057;-69
2021/06/05 07:06:22;;;;;;;6.30;5.93;;;;;;;19.57;76.65;101594.22;5336506;26;20043;-71
2021/06/05 07:08:47;;;;;;;6.12;5.72;;;;;;;19.42;76.95;101554.47;5337882;26;20038;-70
2021/06/05 07:11:15;;;;;;;6.70;6.28;;;;;;;19.56;77.67;101600.50;5338891;26;20102;-71
2021/06/05 07:13:40;;;;;;;5.40;5.20;;;;;;;19.39;77.81;101604.44;5336729;26;20440;-71
2021/06/05 07:16:06;;;;;;;5.57;5.32;;;;;;;19.24;79.29;101609.09;5338631;26;20138;-71
2021/06/05 07:18:31;;;;;;;6.30;5.90;;;;;;;19.37;78.83;101606.37;5339691;26;20070;-71
2021/06/05 07:20:57;;;;;;;6.65;6.12;;;;;;;19.63;78.58;101604.41;5335587;26;20765;-72
2021/06/05 07:23:26;;;;;;;6.80;6.30;;;;;;;19.88;77.61;101593.56;5331253;26;20330;-72
2021/06/05 07:25:52;;;;;;;6.32;5.72;;;;;;;19.61;78.38;101537.09;5335300;26;20038;-75
2021/06/05 07:28:34;;;;;;;6.72;6.25;;;;;;;19.88;75.57;101600.72;5335895;26;20043;-73
2021/06/05 07:31:00;;;;;;;5.37;5.07;;;;;;;20.21;75.74;101599.91;5334523;26;20135;-73
2021/06/05 07:33:25;;;;;;;7.82;7.03;;;;;;;20.34;75.58;101594.47;5335681;26;20043;-73
2021/06/05 07:35:51;;;;;;;5.95;5.57;;;;;;;20.27;76.35;101599.44;5333828;26;20042;-72
2021/06/05 07:38:17;;;;;;;5.43;5.12;;;;;;;20.06;75.69;101609.09;5336061;26;20054;-72
2021/06/05 07:40:42;;;;;;;6.20;5.80;;;;;;;19.68;77.11;101607.53;5334775;26;20083;-71
2021/06/05 07:43:08;;;;;;;6.28;5.87;;;;;;;19.39;78.21;101607.94;5335310;26;20118;-70
2021/06/05 07:45:33;;;;;;;5.65;5.22;;;;;;;19.42;77.67;101609.53;5334591;26;20815;-71
2021/06/05 07:47:59;;;;;;;5.90;5.53;;;;;;;19.41;79.08;101615.81;5335855;26;20752;-71
2021/06/05 07:50:24;;;;;;;6.40;6.00;;;;;;;19.24;78.11;101611.75;5335483;26;20034;-70
2021/06/05 07:52:50;;;;;;;6.15;5.85;;;;;;;19.40;78.30;101619.44;5336470;26;20139;-69
2021/06/05 07:55:15;;;;;;;6.15;5.82;;;;;;;19.86;77.29;101619.47;5336640;26;20954;-72
2021/06/05 07:57:40;;;;;;;5.97;5.57;;;;;;;20.24;75.41;101618.31;5336182;26;20042;-71
2021/06/05 08:00:10;;;;;;;5.65;5.35;;;;;;;19.87;75.54;101612.34;5337441;26;20054;-71
2021/06/05 08:02:35;;;;;;;6.80;6.25;;;;;;;20.49;74.52;101613.72;5336677;26;20745;-71
2021/06/05 08:05:00;;;;;;;6.15;5.75;;;;;;;20.92;72.18;101595.13;5337126;26;20096;-70
2021/06/05 08:07:26;;;;;;;7.70;7.10;;;;;;;20.09;73.44;101526.28;5335766;26;20445;-71
2021/06/05 08:09:52;;;;;;;6.53;6.12;;;;;;;21.12;72.34;101606.81;5336519;26;20287;-72
2021/06/05 08:12:18;;;;;;;5.55;5.25;;;;;;;21.74;70.56;101612.41;5336885;26;20057;-71
2021/06/05 08:14:43;;;;;;;6.10;5.70;;;;;;;22.11;68.33;101607.44;5335926;26;20043;-71
2021/06/05 08:17:09;;;;;;;6.55;6.15;;;;;;;22.40;66.62;101606.72;5338249;26;20049;-71
2021/06/05 08:19:36;;;;;;;6.75;6.22;;;;;;;21.36;70.42;101607.59;5338905;26;20042;-71
2021/06/05 08:22:01;;;;;;;7.32;6.25;;;;;;;21.67;69.69;101593.37;5336365;26;20389;-72
2021/06/05 08:24:27;;;;;;;6.90;6.40;;;;;;;21.40;68.90;101587.69;5338666;26;20057;-72
2021/06/05 08:26:52;;;;;;;7.28;6.78;;;;;;;21.61;69.30;101585.91;5336404;26;20034;-71
2021/06/05 08:29:17;;;;;;;7.07;6.47;;;;;;;21.53;69.07;101583.03;5336807;26;20565;-71
2021/06/05 08:31:43;;;;;;;7.57;5.78;;;;;;;21.98;68.06;101596.09;5337414;26;20138;-72
2021/06/05 08:34:08;;;;;;;7.68;6.97;;;;;;;21.11;69.88;101550.94;5338027;26;20054;-70
2021/06/05 08:36:34;;;;;;;6.85;6.45;;;;;;;21.91;67.91;101598.47;5335751;26;20065;-71
2021/06/05 08:38:59;;;;;;;10.00;7.00;;;;;;;21.95;68.81;101592.84;5337263;26;20057;-70
2021/06/05 08:41:31;;;;;;;7.25;6.72;;;;;;;22.59;66.40;101589.91;5335366;26;20595;-70
2021/06/05 08:44:35;;;;;;;6.20;5.90;;;;;;;22.01;66.10;101590.50;5337209;26;20627;-72
2021/06/05 08:47:27;;;;;;;7.22;6.62;;;;;;;21.77;66.42;101565.87;5331548;26;20130;-71
2021/06/05 08:49:52;;;;;;;7.82;6.97;;;;;;;22.21;66.48;101591.44;5337863;26;20039;-70
2021/06/05 08:52:17;;;;;;;8.48;6.32;;;;;;;21.90;68.22;101594.06;5336902;26;20057;-71
2021/06/05 08:54:43;;;;;;;8.10;7.40;;;;;;;22.10;66.88;101596.84;5356528;26;20038;-72
2021/06/05 08:57:33;;;;;;;6.15;5.68;;;;;;;22.06;66.96;101598.09;5354412;26;20127;-71
2021/06/05 09:00:02;;;;;;;10.77;6.62;;;;;;;21.97;66.86;101601.56;5357818;26;20640;-72
2021/06/05 09:02:28;;;;;;;6.95;6.35;;;;;;;22.28;65.42;101605.12;5338457;26;20039;-72
2021/06/05 09:04:53;;;;;;;6.30;5.90;;;;;;;;;;5338842;26;20042;-71
2021/06/05 09:07:19;;;;;;;7.50;7.07;;;;;;;21.85;66.68;101609.69;5355839;26;20061;-73
2021/06/05 09:09:47;;;;;;;6.68;6.28;;;;;;;21.15;69.07;101605.75;5340486;26;20046;-70
2021/06/05 09:12:13;;;;;;;7.10;6.40;;;;;;;21.60;67.89;101599.37;5339921;26;20046;-73
2021/06/05 09:14:38;;;;;;;7.87;7.15;;;;;;;21.50;69.12;101610.00;5339412;26;20034;-72
2021/06/05 09:17:21;;;;;;;6.37;5.97;;;;;;;21.89;67.82;101611.09;5338711;26;20377;-72
2021/06/05 09:20:05;;;;;;;;;;;;;;;21.33;68.96;101606.03;5341741;26;20062;-71
2021/06/05 09:22:36;;;;;;;7.32;6.65;;;;;;;21.32;70.32;101607.00;5358195;26;19954;-71
2021/06/05 09:25:34;;;;;;;6.43;6.03;;;;;;;21.21;69.26;101604.38;5338942;26;20152;-71
2021/06/05 09:28:27;;;;;;;6.37;5.97;;;;;;;21.02;70.04;101600.56;5357721;26;20153;-71
2021/06/05 09:30:56;;;;;;;6.12;5.72;;;;;;;20.80;71.37;101608.62;5339128;26;20047;-70
2021/06/05 09:33:30;;;;;;;8.25;6.90;;;;;;;20.60;70.88;101563.06;5338910;26;20085;-72
2021/06/05 09:36:24;;;;;;;6.72;6.10;;;;;;;20.97;69.85;101610.78;5339588;26;20115;-72
2021/06/05 09:38:50;;;;;;;6.22;5.82;;;;;;;21.26;69.13;101611.03;5358077;26;20055;-71
2021/06/05 09:41:21;;;;;;;6.28;5.87;;;;;;;21.27;68.97;101611.91;5337721;26;20069;-70
2021/06/05 09:43:48;;;;;;;6.75;6.25;;;;;;;20.92;69.93;101612.97;5338827;26;20053;-71
2021/06/05 09:46:19;;;;;;;6.37;5.97;;;;;;;20.81;71.09;101618.34;5337697;26;20061;-70
2021/06/05 09:48:46;;;;;;;6.37;5.90;;;;;;;20.95;69.98;101617.19;5357520;26;20056;-72
2021/06/05 09:51:33;;;;;;;6.47;6.03;;;;;;;21.56;69.13;101619.31;5339420;26;20081;-73
2021/06/05 09:54:03;;;;;;;6.65;6.25;;;;;;;21.51;67.71;101615.22;5338147;26;20038;-72
2021/06/05 09:56:32;;;;;;;6.57;6.07;;;;;;;21.66;67.63;101617.56;5339673;26;20119;-71
2021/06/05 09:59:05;;;;;;;6.90;6.40;;;;;;;21.17;69.64;101619.81;5339830;26;20057;-71
2021/06/05 10:01:31;;;;;;;6.82;6.32;;;;;;;21.04;70.85;101619.97;5357619;26;20461;-71
2021/06/05 10:04:10;;;;;;;12.63;6.00;;;;;;;20.68;71.62;101621.13;5340349;26;20509;-70
2021/06/05 10:06:40;;;;;;;8.52;7.75;;;;;;;20.68;70.87;101621.13;5334387;26;20204;-71
2021/06/05 10:09:25;;;;;;;5.93;5.62;;;;;;;20.61;71.31;101570.09;5351873;26;20042;-70
2021/06/05 10:12:11;;;;;;;7.37;6.87;;;;;;;21.18;70.11;101621.50;5355052;26;20063;-69
2021/06/05 10:14:43;;;;;;;7.57;6.87;;;;;;;21.30;69.90;101616.97;5335235;26;20081;-69
2021/06/05 10:17:26;;;;;;;7.62;7.03;;;;;;;21.98;68.00;101620.16;5337912;26;20482;-73
2021/06/05 10:19:54;;;;;;;6.95;6.45;;;;;;;22.26;66.17;101632.00;5356681;26;20120;-72
2021/06/05 10:22:20;;;;;;;8.13;7.32;;;;;;;22.37;66.76;101627.53;5336131;26;20103;-70
2021/06/05 10:24:49;;;;;;;13.02;7.20;;;;;;;22.64;65.81;101633.13;5338757;26;20046;-71
2021/06/05 10:27:17;;;;;;;7.53;6.78;;;;;;;23.15;63.70;101627.78;5355539;26;20050;-71
2021/06/05 10:30:20;;;;;;;6.22;5.82;;;;;;;23.12;65.10;101628.06;5337485;26;20401;-71
2021/06/05 10:32:45;;;;;;;8.30;7.40;;;;;;;22.88;63.50;101629.25;5335649;26;20042;-70
2021/06/05 10:35:28;;;;;;;7.15;6.35;;;;;;;22.48;64.34;101628.28;5337068;26;20062;-71
2021/06/05 10:38:00;;;;;;;6.75;6.28;;;;;;;22.43;65.14;101627.88;5339277;26;20039;-71
2021/06/05 10:40:26;;;;;;;6.50;6.10;;;;;;;23.28;62.92;101631.88;5340604;26;20050;-71
2021/06/05 10:42:52;;;;;;;7.28;6.78;;;;;;;22.54;64.33;101628.75;5337357;26;20721;-70
2021/06/05 10:45:25;;;;;;;6.45;6.00;;;;;;;23.41;60.46;101623.53;5338904;26;20257;-70
2021/06/05 10:48:06;;;;;;;6.78;6.12;;;;;;;22.05;60.82;101426.19;5356846;26;20468;-70
2021/06/05 10:50:33;;;;;;;8.32;6.60;;;;;;;23.14;62.05;101615.38;5337828;26;20602;-71
2021/06/05 10:53:17;;;;;;;8.15;6.85;;;;;;;23.40;61.96;101623.72;5339378;26;20054;-71
2021/06/05 10:55:53;;;;;;;10.07;7.18;;;;;;;23.55;62.00;101626.78;5359015;26;20092;-70
2021/06/05 10:58:34;;;;;;;9.73;7.35;;;;;;;22.32;65.14;101627.13;5338510;26;20039;-70
2021/06/05 11:01:01;;;;;;;8.30;7.60;;;;;;;22.73;64.54;101620.75;5358505;26;20057;-71
2021/06/05 11:03:26;;;;;;;7.22;6.53;;;;;;;22.68;64.33;101631.88;5337927;26;20485;-70
2021/06/05 11:06:01;;;;;;;7.40;6.33;;;;;;;22.63;64.65;101620.75;5356717;26;20050;-72
2021/06/05 11:08:28;;;;;;;8.50;6.82;;;;;;;22.92;63.27;101614.62;5357238;26;20489;-70
2021/06/05 11:11:00;;;;;;;14.02;9.20;;;;;;;22.84;63.17;101619.81;5335665;26;20603;-71
2021/06/05 11:13:31;;;;;;;7.40;6.70;;;;;;;22.04;64.61;101613.44;5356428;26;20344;-70
2021/06/05 11:15:58;;;;;;;9.30;7.35;;;;;;;21.91;65.07;101606.47;5363877;26;20632;-72
2021/06/05 11:18:25;;;;;;;7.80;7.00;;;;;;;21.41;64.81;101447.81;5348413;26;20039;-73
2021/06/05 11:20:51;;;;;;;8.88;7.97;;;;;;;22.43;62.75;101581.53;5349201;26;20572;-69
2021/06/05 11:23:16;;;;;;;9.43;8.40;;;;;;;22.62;62.86;101624.41;5348824;26;20154;-71
2021/06/05 11:25:46;;;;;;;10.07;9.07;;;;;;;22.73;63.15;101619.91;5351421;26;20133;-71
2021/06/05 11:28:26;;;;;;;12.10;7.50;;;;;;;22.93;62.89;101632.34;5351746;26;20065;-71
2021/06/05 11:30:51;;;;;;;8.32;7.53;;;;;;;22.79;62.67;101632.75;5366660;26;20381;-70
2021/06/05 11:33:43;;;;;;;9.68;8.50;;;;;;;22.24;64.01;101628.62;5341235;26;20067;-72